Time;durP1;ratioP1;P1;durP2;ratioP2;P2;SDS_P1;SDS_P2;PMS_P1;PMS_P2;Temp;Humidity;BMP_temperature;BMP_pressure;BME280_temperature;BME280_humidity;BME280_pressure;Samples;Min_cycle;Max_cycle;Signal;HPM_P1;HPM_P2
2022/03/27 00:00:52;;;;;;;3.22;1.23;;;19.90;52.60;;;;;;4906043;29;20134;-90
2022/03/27 00:03:54;;;;;;;3.25;1.17;;;20.90;53.50;;;;;;4905527;29;20477;-92
2022/03/27 00:07:06;;;;;;;3.17;1.00;;;20.40;52.50;;;;;;4904600;29;20133;-93
2022/03/27 00:16:03;;;;;;;2.95;1.00;;;21.20;53.30;;;;;;4870768;29;20186;-93
2022/03/27 00:19:04;;;;;;;3.45;1.10;;;21.10;53.80;;;;;;4880334;29;20403;-92
2022/03/27 00:21:30;;;;;;;2.60;1.08;;;21.10;53.30;;;;;;4864629;29;20057;-92
2022/03/27 00:24:14;;;;;;;2.47;0.80;;;22.30;53.70;;;;;;4866200;29;20065;-92
2022/03/27 00:26:56;;;;;;;3.05;0.98;;;21.20;53.50;;;;;;4864500;29;20053;-92
2022/03/27 00:29:36;;;;;;;1.92;0.80;;;21.80;53.50;;;;;;4881182;29;20059;-92
2022/03/27 00:32:08;;;;;;;2.97;1.20;;;21.10;53.50;;;;;;4881985;29;20049;-92
2022/03/27 00:38:32;;;;;;;3.05;1.10;;;20.70;52.80;;;;;;4860493;29;20132;-92
2022/03/27 00:40:58;;;;;;;2.47;0.93;;;21.10;53.40;;;;;;4869928;29;20049;-92
2022/03/27 00:44:21;;;;;;;3.63;1.00;;;21.10;53.70;;;;;;4880084;29;20143;-92
2022/03/27 00:50:26;;;;;;;2.92;1.17;;;20.50;52.60;;;;;;4879184;29;20060;-92
2022/03/27 00:53:48;;;;;;;3.25;1.20;;;21.10;54.00;;;;;;4870366;29;20056;-93
2022/03/27 00:56:22;;;;;;;3.15;1.10;;;20.10;52.40;;;;;;4867114;29;20115;-91
2022/03/27 00:58:51;;;;;;;3.40;1.17;;;22.00;54.00;;;;;;4897247;29;20068;-93
2022/03/27 01:01:42;;;;;;;3.40;1.17;;;21.10;53.40;;;;;;4883091;29;20142;-91
2022/03/27 01:04:19;;;;;;;2.45;0.90;;;21.10;53.00;;;;;;4851335;29;20048;-94
2022/03/27 01:06:45;;;;;;;2.97;1.10;;;21.00;52.90;;;;;;4879596;29;20056;-94
2022/03/27 01:09:36;;;;;;;2.97;1.05;;;22.30;54.10;;;;;;4863536;29;20049;-94
2022/03/27 01:15:57;;;;;;;2.97;0.95;;;20.60;52.70;;;;;;4934988;29;20126;-93
2022/03/27 01:18:43;;;;;;;3.08;1.20;;;21.30;53.70;;;;;;4934730;29;20043;-92
2022/03/27 01:21:29;;;;;;;3.67;1.00;;;20.90;52.90;;;;;;4939486;29;20044;-93
2022/03/27 01:24:16;;;;;;;3.13;1.05;;;21.00;53.30;;;;;;4915386;29;20079;-93
2022/03/27 01:27:00;;;;;;;3.30;1.10;;;21.00;53.10;;;;;;4938716;29;20040;-93
2022/03/27 01:29:41;;;;;;;3.90;1.20;;;22.60;55.30;;;;;;4920382;29;20110;-94
2022/03/27 01:32:20;;;;;;;3.42;1.00;;;22.10;54.10;;;;;;4921935;29;20051;-94
2022/03/27 01:35:05;;;;;;;3.50;1.20;;;20.90;53.30;;;;;;4921818;29;20107;-94
2022/03/27 01:37:40;;;;;;;3.28;1.27;;;21.10;53.20;;;;;;4921399;29;20094;-93
2022/03/27 01:40:09;;;;;;;2.78;1.10;;;21.00;52.90;;;;;;4937775;29;20059;-93
2022/03/27 01:42:44;;;;;;;2.97;1.25;;;20.90;53.20;;;;;;4937609;29;20138;-92
2022/03/27 01:45:19;;;;;;;2.75;1.23;;;20.90;53.60;;;;;;4937936;29;20138;-95
2022/03/27 01:47:45;;;;;;;3.17;1.10;;;20.00;53.40;;;;;;4905536;29;20087;-93
2022/03/27 01:50:57;;;;;;;2.67;1.10;;;18.60;52.30;;;;;;4921498;29;20070;-93
2022/03/27 01:54:04;;;;;;;2.22;0.93;;;22.30;53.70;;;;;;4938049;29;20087;-92
2022/03/27 01:56:32;;;;;;;3.03;1.10;;;21.00;53.00;;;;;;4922280;29;20559;-93
2022/03/27 01:59:29;;;;;;;2.65;1.10;;;21.20;53.20;;;;;;4956937;23;20083;-93
2022/03/27 02:02:24;;;;;;;3.33;1.17;;;21.00;53.00;;;;;;4882775;29;20053;-93
2022/03/27 02:12:34;;;;;;;2.33;1.00;;;21.70;53.50;;;;;;4918836;29;20071;-93
2022/03/27 02:15:10;;;;;;;2.80;1.00;;;20.70;52.80;;;;;;4939691;29;20055;-93
2022/03/27 02:17:51;;;;;;;2.08;0.82;;;21.80;54.20;;;;;;4939206;29;20389;-93
2022/03/27 02:20:19;;;;;;;3.75;1.27;;;22.20;54.20;;;;;;4910233;29;20051;-94
2022/03/27 02:22:48;;;;;;;4.80;1.27;;;22.30;54.10;;;;;;4939596;29;20043;-91
2022/03/27 02:25:15;;;;;;;4.35;1.27;;;21.80;53.80;;;;;;4956297;29;20043;-92
2022/03/27 02:28:02;;;;;;;2.67;0.85;;;20.90;53.80;;;;;;4938877;29;20432;-93
2022/03/27 02:30:30;;;;;;;3.42;1.27;;;20.80;53.20;;;;;;4939045;29;20047;-91
2022/03/27 02:32:59;;;;;;;3.75;1.27;;;20.80;54.00;;;;;;4956493;29;20103;-92
2022/03/27 02:35:37;;;;;;;3.05;1.10;;;21.90;54.10;;;;;;4939067;29;20054;-94
2022/03/27 02:38:31;;;;;;;3.10;0.90;;;19.60;52.30;;;;;;4956221;28;20051;-92
2022/03/27 02:41:05;;;;;;;2.85;0.90;;;20.40;53.40;;;;;;4942558;29;20134;-93
2022/03/27 02:43:31;;;;;;;3.78;1.30;;;20.00;52.90;;;;;;4942723;29;20058;-91
2022/03/27 02:46:03;;;;;;;3.92;1.10;;;21.90;53.80;;;;;;4960688;29;20103;-93
2022/03/27 02:48:34;;;;;;;3.80;0.90;;;22.20;54.40;;;;;;4943119;29;20051;-92
2022/03/27 02:57:05;;;;;;;2.17;0.90;;;20.80;52.90;;;;;;4901155;29;20052;-94
2022/03/27 03:00:18;;;;;;;2.92;1.00;;;20.80;52.90;;;;;;5035016;23;20056;-94
2022/03/27 03:03:02;;;;;;;;;;;22.00;53.60;;;;;;4906106;29;20432;-94
2022/03/27 03:06:03;;;;;;;2.85;1.17;;;20.70;52.80;;;;;;4922689;29;19933;-93
2022/03/27 03:08:56;;;;;;;2.25;0.95;;;20.80;52.90;;;;;;4902586;29;20501;-94
2022/03/27 03:15:20;;;;;;;2.90;1.00;;;20.70;52.80;;;;;;4909094;29;20415;-93
2022/03/27 03:18:09;;;;;;;2.72;1.08;;;20.50;52.70;;;;;;4863315;29;20053;-93
2022/03/27 03:20:35;;;;;;;2.90;1.20;;;20.70;53.30;;;;;;4868585;29;20076;-93
2022/03/27 03:23:01;;;;;;;3.65;1.27;;;20.50;53.80;;;;;;4904456;29;20059;-93
2022/03/27 03:25:27;;;;;;;2.80;1.10;;;20.70;53.60;;;;;;4904268;29;20040;-93
2022/03/27 03:27:53;;;;;;;2.78;1.00;;;19.70;53.00;;;;;;4905039;29;20164;-94
2022/03/27 03:30:54;;;;;;;3.38;1.10;;;21.90;53.70;;;;;;4904830;29;20048;-93
2022/03/27 03:33:20;;;;;;;2.85;0.90;;;20.70;52.90;;;;;;4920539;29;20056;-94
2022/03/27 03:35:56;;;;;;;;;;;;;;;;;;;;;
2022/03/27 03:39:10;;;;;;;2.78;1.08;;;20.40;52.70;;;;;;4921472;29;20099;-94
2022/03/27 03:41:51;;;;;;;1.75;0.85;;;20.60;52.80;;;;;;4920953;29;20051;-93
2022/03/27 03:44:17;;;;;;;2.58;1.15;;;19.60;52.30;;;;;;4939251;29;20420;-94
2022/03/27 03:46:54;;;;;;;;;;;;;;;;;;;;;
2022/03/27 03:49:43;;;;;;;3.13;1.30;;;19.90;52.90;;;;;;4938175;29;20065;-91
2022/03/27 03:52:25;;;;;;;2.78;0.90;;;21.90;53.80;;;;;;4939661;29;20044;-90
2022/03/27 03:55:11;;;;;;;2.63;0.80;;;20.60;53.20;;;;;;4939228;29;20061;-93
2022/03/27 03:57:58;;;;;;;3.53;1.20;;;20.20;53.20;;;;;;4939550;29;20061;-92
2022/03/27 04:00:37;;;;;;;4.22;1.20;;;20.60;52.80;;;;;;4929759;23;20056;-94
2022/03/27 04:03:03;;;;;;;2.58;0.95;;;21.60;53.50;;;;;;4922310;29;20035;-91
2022/03/27 04:05:29;;;;;;;1.88;0.85;;;21.00;53.30;;;;;;4940250;29;20600;-93
2022/03/27 04:07:55;;;;;;;2.28;1.02;;;20.60;53.40;;;;;;4938674;29;20047;-93
2022/03/27 04:10:20;;;;;;;2.08;0.95;;;20.60;53.10;;;;;;4938893;29;20095;-92
2022/03/27 04:15:16;;;;;;;3.63;1.08;;;20.70;52.90;;;;;;4919591;29;20052;-92
2022/03/27 04:17:43;;;;;;;2.80;0.90;;;20.60;53.20;;;;;;4903328;29;20055;-91
2022/03/27 04:20:42;;;;;;;2.92;1.10;;;21.70;53.50;;;;;;4895594;29;20050;-91
2022/03/27 04:23:19;;;;;;;2.28;1.08;;;19.30;52.30;;;;;;4919850;29;20048;-92
2022/03/27 04:25:48;;;;;;;3.03;0.95;;;21.90;53.70;;;;;;4902822;29;20052;-91
2022/03/27 04:28:28;;;;;;;3.30;1.20;;;20.60;53.40;;;;;;4902843;29;20413;-91
2022/03/27 04:30:53;;;;;;;1.95;0.88;;;20.60;52.80;;;;;;4902629;29;20054;-91
2022/03/27 04:33:31;;;;;;;3.92;1.08;;;19.60;52.50;;;;;;4902292;29;20047;-91
2022/03/27 04:36:15;;;;;;;3.20;1.10;;;20.50;53.10;;;;;;4903030;29;20044;-91
2022/03/27 04:39:15;;;;;;;3.28;1.17;;;20.70;53.40;;;;;;4902792;29;20436;-92
2022/03/27 04:45:32;;;;;;;3.00;0.90;;;20.60;52.80;;;;;;4861165;29;20056;-91
2022/03/27 04:48:16;;;;;;;3.10;1.08;;;21.00;53.70;;;;;;4863217;29;20455;-91
2022/03/27 04:50:44;;;;;;;3.40;1.05;;;20.10;53.80;;;;;;4862845;29;20076;-91
2022/03/27 04:53:10;;;;;;;2.42;1.00;;;19.50;52.20;;;;;;4861909;29;20109;-92
2022/03/27 05:03:49;;;;;;;3.22;1.08;;;20.50;52.80;;;;;;4899132;29;20465;-92
2022/03/27 05:06:29;;;;;;;2.70;1.00;;;20.60;52.80;;;;;;4901314;29;20489;-92
2022/03/27 05:09:18;;;;;;;2.35;1.00;;;20.70;53.80;;;;;;4899862;29;20086;-90
2022/03/27 05:11:55;;;;;;;2.30;0.90;;;22.10;53.80;;;;;;4900202;29;20048;-92
2022/03/27 05:14:55;;;;;;;2.75;1.08;;;20.50;53.30;;;;;;4884995;29;20044;-91
2022/03/27 05:17:46;;;;;;;2.47;1.00;;;21.30;53.20;;;;;;4884781;29;20056;-91
2022/03/27 05:20:22;;;;;;;2.30;1.03;;;20.40;52.70;;;;;;4887166;29;20048;-92
2022/03/27 05:22:54;;;;;;;2.90;1.13;;;20.50;53.20;;;;;;4886562;29;20053;-92
2022/03/27 05:25:29;;;;;;;3.42;1.08;;;20.90;53.10;;;;;;4897216;29;20509;-92
2022/03/27 05:27:58;;;;;;;2.38;1.15;;;20.80;53.60;;;;;;4900905;29;20477;-92
2022/03/27 05:30:25;;;;;;;2.63;1.08;;;20.50;53.00;;;;;;4895532;29;20516;-92
2022/03/27 05:33:03;;;;;;;2.90;1.10;;;21.70;53.70;;;;;;4898217;29;20116;-92
2022/03/27 05:36:17;;;;;;;;;;;;;;;;;;;;;
2022/03/27 05:38:49;;;;;;;3.28;1.10;;;20.60;53.60;;;;;;4861513;29;20053;-93
2022/03/27 05:41:15;;;;;;;2.33;1.23;;;21.80;53.80;;;;;;4880556;29;20063;-92
2022/03/27 05:43:41;;;;;;;2.63;1.02;;;20.40;53.60;;;;;;4882557;29;20045;-94
2022/03/27 05:46:07;;;;;;;2.28;1.00;;;18.60;52.10;;;;;;4864644;29;20093;-93
2022/03/27 05:48:33;;;;;;;2.20;1.00;;;18.40;52.00;;;;;;4865305;29;20057;-92
2022/03/27 05:50:58;;;;;;;2.83;1.00;;;20.40;52.90;;;;;;4865230;29;20061;-92
2022/03/27 05:59:28;;;;;;;1.73;0.70;;;20.40;52.70;;;;;;4881449;29;20090;-93
2022/03/27 06:05:51;;;;;;;2.65;1.08;;;20.40;52.70;;;;;;4882240;29;20117;-92
2022/03/27 06:09:14;;;;;;;2.13;0.85;;;20.90;53.70;;;;;;4881285;29;20048;-91
2022/03/27 06:11:40;;;;;;;2.75;1.10;;;20.30;52.70;;;;;;4828412;29;20061;-93
2022/03/27 06:14:26;;;;;;;2.97;1.00;;;18.70;52.10;;;;;;4897388;23;20065;-93
2022/03/27 06:17:13;;;;;;;3.22;1.23;;;20.30;53.00;;;;;;4928286;29;20071;-94
2022/03/27 06:20:15;;;;;;;2.40;0.88;;;19.70;52.70;;;;;;4930127;29;20110;-93
2022/03/27 06:22:50;;;;;;;2.38;1.00;;;20.40;52.80;;;;;;4886415;29;20049;-93
2022/03/27 06:26:16;;;;;;;;;;;;;;;;;;;;;
2022/03/27 06:32:32;;;;;;;1.80;1.00;;;20.30;52.70;;;;;;4833906;29;20085;-93
2022/03/27 06:35:05;;;;;;;2.65;1.05;;;20.00;52.60;;;;;;4886264;29;20060;-94
2022/03/27 06:37:36;;;;;;;2.33;1.02;;;20.30;53.00;;;;;;4886030;29;20061;-93
2022/03/27 06:40:35;;;;;;;2.67;1.10;;;21.20;53.50;;;;;;4886749;29;20057;-94
2022/03/27 06:43:01;;;;;;;2.58;1.13;;;19.70;52.40;;;;;;4869456;29;20052;-93
2022/03/27 06:45:38;;;;;;;3.80;1.20;;;18.50;52.00;;;;;;4886508;29;20045;-93
2022/03/27 06:48:16;;;;;;;3.03;1.20;;;21.50;53.60;;;;;;4941364;29;20047;-93
2022/03/27 06:50:44;;;;;;;3.20;0.82;;;20.20;52.70;;;;;;4925746;29;20400;-93
2022/03/27 06:53:24;;;;;;;3.80;1.10;;;20.20;52.90;;;;;;4925868;29;20047;-93
2022/03/27 06:55:52;;;;;;;2.45;0.90;;;20.20;53.30;;;;;;4942693;29;20075;-92
2022/03/27 06:58:18;;;;;;;2.60;0.85;;;20.20;53.10;;;;;;4930319;29;20050;-92
2022/03/27 07:03:27;;;;;;;2.15;1.00;;;20.80;53.30;;;;;;4925203;29;20047;-94
2022/03/27 07:05:59;;;;;;;2.22;0.90;;;21.20;53.50;;;;;;4926632;29;20080;-94
2022/03/27 07:08:31;;;;;;;2.95;1.08;;;20.20;53.50;;;;;;4961338;29;20051;-92
2022/03/27 07:11:09;;;;;;;2.50;0.93;;;20.30;53.40;;;;;;4944794;29;20047;-94
2022/03/27 07:14:00;;;;;;;2.00;0.77;;;20.50;53.60;;;;;;4944631;29;20055;-93
2022/03/27 07:16:30;;;;;;;2.20;0.98;;;20.20;52.70;;;;;;4945257;29;20113;-94
2022/03/27 07:18:59;;;;;;;2.30;0.80;;;20.40;53.00;;;;;;4944976;29;20043;-93
2022/03/27 07:21:35;;;;;;;3.47;1.40;;;20.20;52.70;;;;;;4944830;29;20483;-94
2022/03/27 07:24:03;;;;;;;2.97;1.00;;;20.20;52.70;;;;;;4961588;28;20058;-94
2022/03/27 07:26:29;;;;;;;1.90;0.85;;;20.50;53.60;;;;;;4958550;29;20043;-90
2022/03/27 07:29:08;;;;;;;1.75;0.80;;;20.20;53.30;;;;;;4941476;29;20061;-91
2022/03/27 07:34:37;;;;;;;2.35;1.08;;;20.10;53.00;;;;;;4932361;29;20111;-94
2022/03/27 07:37:04;;;;;;;3.22;0.98;;;21.10;53.30;;;;;;4950464;29;20058;-93
2022/03/27 07:39:30;;;;;;;2.40;1.02;;;20.10;53.20;;;;;;4941024;29;20095;-94
2022/03/27 07:42:01;;;;;;;3.92;1.13;;;21.00;53.20;;;;;;4958723;29;20051;-93
2022/03/27 07:44:33;;;;;;;3.22;1.30;;;21.00;53.40;;;;;;4922591;29;20059;-93
2022/03/27 07:47:03;;;;;;;2.78;1.20;;;21.30;53.90;;;;;;4922208;29;20052;-93
2022/03/27 07:50:24;;;;;;;2.75;1.33;;;20.10;53.20;;;;;;4922824;29;20062;-92
2022/03/27 07:52:52;;;;;;;2.80;1.35;;;20.10;52.60;;;;;;4922376;29;20095;-94
2022/03/27 07:58:45;;;;;;;3.90;1.58;;;20.20;53.00;;;;;;4952832;29;20093;-94
2022/03/27 08:01:31;;;;;;;3.10;1.25;;;20.00;52.60;;;;;;4924130;29;20111;-95
2022/03/27 08:04:12;;;;;;;2.33;1.00;;;21.50;53.90;;;;;;4930975;29;20495;-94
2022/03/27 08:13:26;;;;;;;3.78;1.23;;;20.20;52.70;;;;;;4883111;29;20446;-95
2022/03/27 08:16:56;;;;;;;4.45;1.35;;;20.20;53.00;;;;;;4851322;29;20076;-94
2022/03/27 08:19:52;;;;;;;3.90;0.98;;;19.90;52.70;;;;;;4865775;29;20840;-95
2022/03/27 08:22:30;;;;;;;2.30;0.98;;;20.20;52.80;;;;;;4850918;29;20061;-94
2022/03/27 08:25:12;;;;;;;3.42;1.08;;;20.50;53.30;;;;;;4948148;23;20111;-94
2022/03/27 08:27:44;;;;;;;2.80;0.95;;;20.20;53.20;;;;;;4924480;29;20087;-94
2022/03/27 08:30:11;;;;;;;4.63;1.50;;;21.20;53.60;;;;;;4906023;29;20519;-94
2022/03/27 08:33:00;;;;;;;3.10;1.20;;;20.20;52.80;;;;;;4914493;29;20056;-94
2022/03/27 08:35:26;;;;;;;4.60;0.90;;;20.60;53.50;;;;;;5082887;23;20052;-94
2022/03/27 08:38:26;;;;;;;5.72;1.60;;;21.50;54.00;;;;;;4941469;29;20052;-93
2022/03/27 08:41:14;;;;;;;3.20;1.00;;;20.30;52.70;;;;;;4887601;29;20492;-94
2022/03/27 08:43:40;;;;;;;3.90;1.00;;;20.60;52.90;;;;;;4920951;29;20408;-94
2022/03/27 08:46:10;;;;;;;2.95;1.20;;;21.10;54.00;;;;;;4922247;29;20068;-95
2022/03/27 08:49:28;;;;;;;4.13;1.17;;;20.00;53.00;;;;;;5220048;23;20428;-92
2022/03/27 08:52:41;;;;;;;4.68;1.30;;;20.30;52.70;;;;;;4916370;29;20087;-94
2022/03/27 08:55:08;;;;;;;5.45;1.55;;;20.30;52.70;;;;;;4909651;29;20044;-96
2022/03/27 08:57:37;;;;;;;5.25;1.50;;;18.40;51.80;;;;;;4934000;29;20043;-94
2022/03/27 09:00:26;;;;;;;3.08;1.10;;;20.20;53.30;;;;;;4923658;29;20164;-95
2022/03/27 09:02:52;;;;;;;4.97;1.52;;;20.20;52.70;;;;;;4939977;29;20095;-95
2022/03/27 09:06:08;;;;;;;3.22;1.33;;;19.10;53.00;;;;;;4941965;29;20447;-92
2022/03/27 09:08:43;;;;;;;4.43;1.50;;;20.30;52.70;;;;;;4924204;29;20055;-94
2022/03/27 09:14:08;;;;;;;5.85;2.10;;;20.20;52.60;;;;;;5260801;23;20056;-91
2022/03/27 09:17:06;;;;;;;4.57;1.35;;;20.60;52.80;;;;;;4914966;29;20122;-93
2022/03/27 09:19:56;;;;;;;4.35;1.23;;;20.20;52.60;;;;;;4919482;29;20058;-94
2022/03/27 09:22:41;;;;;;;3.05;1.20;;;20.20;52.50;;;;;;4926056;29;20492;-92
2022/03/27 09:26:16;;;;;;;4.45;1.38;;;20.10;52.70;;;;;;4840602;29;20106;-93
2022/03/27 09:30:01;;;;;;;3.60;1.38;;;20.30;52.60;;;;;;4792256;29;20047;-92
2022/03/27 09:32:28;;;;;;;3.78;1.30;;;20.20;52.50;;;;;;4803452;29;20096;-94
2022/03/27 09:35:21;;;;;;;3.95;1.20;;;21.70;53.60;;;;;;4863209;29;20057;-91
2022/03/27 09:37:53;;;;;;;4.50;1.40;;;20.20;52.50;;;;;;4861922;29;20057;-93
2022/03/27 09:40:37;;;;;;;3.17;1.17;;;20.50;53.20;;;;;;4866137;29;20056;-93
2022/03/27 09:43:22;;;;;;;2.80;0.90;;;21.40;53.70;;;;;;4849997;29;20050;-84
2022/03/27 09:46:13;;;;;;;4.25;1.20;;;20.30;52.90;;;;;;4809907;29;20073;-84
2022/03/27 09:52:48;;;;;;;3.90;1.30;;;19.70;52.10;;;;;;4883265;23;20056;-84
2022/03/27 09:55:52;;;;;;;2.95;1.00;;;20.20;52.40;;;;;;4918478;29;20067;-84
2022/03/27 10:02:41;;;;;;;3.63;1.30;;;19.70;52.10;;;;;;4898792;29;20075;-84
2022/03/27 10:05:19;;;;;;;5.38;1.70;;;20.40;52.40;;;;;;4936403;29;20080;-84
2022/03/27 10:08:27;;;;;;;4.53;1.10;;;20.40;52.40;;;;;;4919150;29;20060;-84
2022/03/27 10:10:53;;;;;;;4.10;1.00;;;20.90;52.70;;;;;;4917378;29;20059;-84
2022/03/27 10:13:56;;;;;;;2.80;1.10;;;19.60;52.30;;;;;;4881123;29;20059;-84
2022/03/27 10:16:36;;;;;;;2.88;1.10;;;19.70;51.90;;;;;;4917951;29;20107;-84
2022/03/27 10:19:10;;;;;;;3.90;1.10;;;20.30;52.30;;;;;;4884783;29;20056;-84
2022/03/27 10:21:35;;;;;;;5.05;1.20;;;20.40;52.30;;;;;;4916638;29;20048;-84
2022/03/27 10:24:16;;;;;;;3.47;1.13;;;20.40;52.30;;;;;;4918465;29;20099;-84
2022/03/27 10:26:45;;;;;;;3.93;1.17;;;20.40;52.30;;;;;;4894847;29;20086;-84
2022/03/27 10:29:12;;;;;;;3.83;1.40;;;20.40;52.20;;;;;;4935332;29;20079;-84
2022/03/27 10:31:38;;;;;;;3.88;1.00;;;20.50;52.30;;;;;;4916567;29;20052;-83
2022/03/27 10:37:15;;;;;;;3.08;1.20;;;20.50;52.20;;;;;;4909656;29;20059;-83
2022/03/27 10:40:23;;;;;;;4.50;1.02;;;20.50;52.40;;;;;;4903238;29;20044;-83
2022/03/27 10:43:10;;;;;;;2.58;0.82;;;20.40;52.20;;;;;;4919007;29;20103;-82
2022/03/27 10:49:30;;;;;;;2.80;0.90;;;20.50;52.20;;;;;;4904446;29;20052;-83
2022/03/27 10:52:08;;;;;;;4.00;0.90;;;21.70;53.00;;;;;;4919466;29;20060;-83
2022/03/27 10:55:01;;;;;;;3.95;1.00;;;19.60;52.20;;;;;;4898925;29;20044;-84
2022/03/27 10:57:41;;;;;;;;;;;20.60;52.10;;;;;;4900457;29;20512;-84
2022/03/27 11:00:08;;;;;;;2.65;1.00;;;19.70;51.60;;;;;;4918183;29;20292;-84
2022/03/27 11:02:53;;;;;;;3.47;0.88;;;20.60;52.20;;;;;;4933723;23;20022;-93
2022/03/27 11:05:44;;;;;;;3.80;1.05;;;20.60;52.60;;;;;;4961684;29;20058;-94
2022/03/27 11:08:19;;;;;;;2.72;0.85;;;20.20;52.30;;;;;;4944115;29;20419;-93
2022/03/27 11:11:03;;;;;;;4.22;1.13;;;21.50;53.00;;;;;;4940858;29;20039;-92
2022/03/27 11:20:38;;;;;;;4.15;0.98;;;20.80;52.20;;;;;;4904866;29;20602;-92
2022/03/27 11:23:08;;;;;;;3.72;0.80;;;20.20;51.80;;;;;;4929996;29;20118;-92
2022/03/27 11:33:37;;;;;;;4.60;0.90;;;20.30;51.80;;;;;;4924146;29;20106;-83
2022/03/27 11:36:09;;;;;;;4.00;0.88;;;20.40;51.90;;;;;;4874177;29;20496;-84
2022/03/27 11:39:07;;;;;;;3.55;0.85;;;21.70;53.30;;;;;;4924640;29;20043;-91
2022/03/27 12:06:13;;;;;;;10.23;2.05;;;20.80;51.90;;;;;;2012808;23;20585;-92
2022/03/27 12:13:07;;;;;;;7.22;1.85;;;21.20;52.10;;;;;;4906783;23;20067;-96
2022/03/27 12:15:46;;;;;;;10.25;1.92;;;21.80;52.30;;;;;;4923389;29;20052;-85
2022/03/27 12:18:40;;;;;;;5.88;1.77;;;20.90;51.80;;;;;;4920868;29;20024;-89
2022/03/27 12:21:35;;;;;;;9.18;1.92;;;21.00;51.90;;;;;;4905497;29;20044;-92
2022/03/27 12:24:43;;;;;;;7.18;1.48;;;20.20;51.50;;;;;;4917007;29;20165;-91
2022/03/27 12:30:05;;;;;;;4.53;1.35;;;20.50;51.60;;;;;;4944259;23;20052;-92
2022/03/27 12:32:31;;;;;;;3.63;1.27;;;21.00;52.10;;;;;;4920403;29;20051;-92
2022/03/27 12:35:20;;;;;;;4.80;1.40;;;21.00;52.30;;;;;;4904499;29;20062;-92
2022/03/27 12:37:46;;;;;;;4.65;1.10;;;21.00;51.70;;;;;;4919659;29;20492;-91
2022/03/27 12:40:19;;;;;;;4.90;1.23;;;21.00;52.30;;;;;;4936778;29;20047;-90
2022/03/27 12:43:12;;;;;;;5.30;1.27;;;20.80;51.90;;;;;;4919996;29;20047;-91
2022/03/27 12:49:03;;;;;;;4.65;0.95;;;21.20;51.80;;;;;;4936421;23;20190;-90
2022/03/27 12:52:13;;;;;;;6.10;1.38;;;21.90;52.20;;;;;;5262817;23;20948;-92
2022/03/27 12:54:55;;;;;;;3.85;1.00;;;21.20;51.70;;;;;;4882402;29;20056;-90
2022/03/27 12:57:23;;;;;;;4.22;1.20;;;21.10;51.90;;;;;;4882810;29;20112;-90
2022/03/27 13:00:44;;;;;;;5.82;1.40;;;22.40;53.00;;;;;;5089628;23;20051;-90
2022/03/27 13:04:01;;;;;;;5.40;1.02;;;21.10;51.70;;;;;;4903241;29;20080;-91
2022/03/27 13:06:58;;;;;;;5.65;1.45;;;21.20;51.70;;;;;;4917652;29;20059;-91
2022/03/27 13:09:51;;;;;;;3.78;1.17;;;21.20;51.70;;;;;;4907386;23;20134;-91
2022/03/27 13:12:26;;;;;;;5.70;1.40;;;19.40;50.80;;;;;;4899331;29;20053;-91
2022/03/27 13:14:52;;;;;;;4.60;0.90;;;22.00;52.60;;;;;;4930542;23;20150;-90
2022/03/27 13:17:55;;;;;;;3.95;1.25;;;21.30;51.80;;;;;;4924332;29;20831;-94
2022/03/27 13:21:12;;;;;;;3.58;1.02;;;20.50;51.20;;;;;;4921981;23;20065;-92
2022/03/27 14:06:05;;;;;;;2.42;0.65;;;21.10;51.50;;;;;;5091239;23;20046;-96
2022/03/27 14:08:57;;;;;;;3.85;1.02;;;21.50;51.70;;;;;;4918322;29;20063;-96
2022/03/27 14:11:23;;;;;;;4.93;0.82;;;21.00;51.40;;;;;;4933682;29;20078;-96
2022/03/27 14:24:20;;;;;;;2.80;0.65;;;21.50;51.70;;;;;;5288878;23;20052;-95
2022/03/27 14:26:50;;;;;;;2.30;0.70;;;21.50;51.70;;;;;;4885974;29;20060;-95
2022/03/27 14:48:07;;;;;;;2.80;0.70;;;21.60;51.70;;;;;;5895140;23;20060;-96
2022/03/27 16:42:14;;;;;;;2.17;0.52;;;21.20;51.70;;;;;;4907976;29;20083;-85
2022/03/27 16:46:25;;;;;;;4.35;1.40;;;22.30;52.80;;;;;;4909292;29;20044;-88
2022/03/27 16:48:29;;;;;;;8.18;2.03;;;20.60;51.20;;;;;;4848421;29;20058;-86
2022/03/27 16:51:01;;;;;;;9.30;1.60;;;21.80;52.00;;;;;;4856399;29;20060;-88
2022/03/27 16:53:57;;;;;;;5.15;1.40;;;23.10;52.70;;;;;;4862357;29;20438;-90
2022/03/27 16:56:37;;;;;;;7.22;1.77;;;21.80;51.70;;;;;;4893067;29;20056;-92
2022/03/27 16:59:08;;;;;;;8.75;1.80;;;21.80;51.80;;;;;;4891841;29;20055;-89
2022/03/27 17:04:10;;;;;;;7.60;1.65;;;21.80;51.90;;;;;;5051043;23;20120;-94
2022/03/27 17:06:35;;;;;;;8.48;1.55;;;21.10;52.60;;;;;;4922434;29;20050;-92
2022/03/27 17:09:01;;;;;;;6.80;1.27;;;21.80;52.40;;;;;;4926499;29;20051;-88
2022/03/27 17:11:37;;;;;;;6.93;1.85;;;20.10;51.30;;;;;;4926414;29;20048;-88
2022/03/27 17:14:12;;;;;;;5.97;1.48;;;22.70;52.50;;;;;;4921386;29;20879;-88
2022/03/27 17:16:56;;;;;;;5.50;1.45;;;21.80;52.10;;;;;;4939031;29;20104;-90
2022/03/27 17:19:29;;;;;;;7.30;1.75;;;21.80;52.20;;;;;;4924578;29;20135;-90
2022/03/27 17:21:56;;;;;;;6.55;1.30;;;21.90;52.10;;;;;;4929753;29;20081;-87
2022/03/27 17:24:22;;;;;;;4.60;1.42;;;21.90;52.10;;;;;;4913288;29;20055;-92
2022/03/27 17:26:47;;;;;;;5.13;1.15;;;21.90;52.10;;;;;;4953041;29;20073;-89
2022/03/27 17:29:13;;;;;;;6.80;1.33;;;23.00;52.70;;;;;;4936668;29;20046;-93
2022/03/27 17:31:39;;;;;;;8.63;1.35;;;21.90;52.10;;;;;;4934034;29;20043;-88
2022/03/27 17:34:07;;;;;;;5.88;1.20;;;21.90;52.50;;;;;;4935649;29;20081;-94
2022/03/27 17:36:34;;;;;;;6.22;1.65;;;21.90;52.10;;;;;;4937360;29;20047;-93
2022/03/27 17:39:07;;;;;;;6.03;1.48;;;21.90;52.10;;;;;;4954903;29;20050;-89
2022/03/27 17:41:39;;;;;;;5.88;1.40;;;22.00;52.30;;;;;;4920940;29;20403;-94
2022/03/27 17:44:08;;;;;;;5.90;1.10;;;22.00;52.20;;;;;;4919611;29;20126;-89
2022/03/27 17:46:43;;;;;;;6.70;1.50;;;22.00;52.10;;;;;;4923518;29;20055;-86
2022/03/27 17:49:09;;;;;;;4.93;1.25;;;22.00;52.00;;;;;;4904474;29;20082;-86
2022/03/27 17:51:34;;;;;;;4.63;1.45;;;22.00;52.10;;;;;;4934786;29;20047;-87
2022/03/27 17:54:13;;;;;;;;;;;;;;;;;;;;;
2022/03/27 17:56:48;;;;;;;4.70;1.10;;;22.40;52.20;;;;;;4917540;29;20146;-93
2022/03/27 17:59:51;;;;;;;5.45;1.13;;;23.40;53.10;;;;;;4940076;29;20051;-96
2022/03/27 18:09:01;;;;;;;4.05;1.05;;;22.10;52.00;;;;;;5842390;23;20059;-96
2022/03/27 18:12:30;;;;;;;4.93;1.05;;;22.10;51.90;;;;;;4922818;29;20052;-96
2022/03/27 18:14:59;;;;;;;3.22;0.98;;;22.10;52.00;;;;;;4921969;29;20460;-96
2022/03/27 18:17:25;;;;;;;2.97;0.85;;;22.60;52.80;;;;;;4922622;29;20044;-96
2022/03/27 18:19:53;;;;;;;3.72;1.10;;;20.90;52.40;;;;;;4923799;29;20086;-96
2022/03/27 18:22:23;;;;;;;3.88;1.10;;;21.40;51.50;;;;;;4923693;29;20452;-96
2022/03/27 18:25:17;;;;;;;4.47;1.23;;;22.10;52.70;;;;;;4943049;23;20058;-96
2022/03/27 18:27:43;;;;;;;3.38;0.77;;;22.10;52.50;;;;;;4923196;29;20498;-96
2022/03/27 18:48:03;;;;;;;5.03;1.10;;;22.10;52.00;;;;;;5367094;23;20056;-96
2022/03/27 18:54:10;;;;;;;2.63;0.93;;;22.20;52.00;;;;;;4940534;29;20051;-96
2022/03/27 18:56:59;;;;;;;3.38;0.98;;;23.30;52.60;;;;;;4941885;29;20384;-96
2022/03/27 18:59:34;;;;;;;5.55;1.00;;;23.10;52.50;;;;;;4904991;29;20421;-96
2022/03/27 19:02:00;;;;;;;5.57;1.20;;;23.20;53.10;;;;;;4926362;29;20135;-96
2022/03/27 19:04:45;;;;;;;2.78;0.85;;;22.00;52.20;;;;;;4944335;29;20074;-94
2022/03/27 19:07:12;;;;;;;4.13;1.00;;;22.70;52.70;;;;;;4945756;23;20060;-94
2022/03/27 19:09:41;;;;;;;5.65;1.08;;;22.90;53.20;;;;;;4939469;29;20083;-94
2022/03/27 19:12:11;;;;;;;2.80;0.93;;;22.00;52.50;;;;;;4924299;29;20058;-96
2022/03/27 19:15:01;;;;;;;3.60;0.90;;;22.00;52.30;;;;;;4937272;29;20095;-95
2022/03/27 19:17:49;;;;;;;4.00;0.90;;;23.20;53.30;;;;;;4925601;23;20079;-95
2022/03/27 19:20:41;;;;;;;3.90;1.30;;;22.10;52.10;;;;;;4903414;29;20234;-96
2022/03/27 19:23:19;;;;;;;4.22;0.80;;;22.00;52.10;;;;;;4923598;29;20055;-95
2022/03/27 19:25:56;;;;;;;5.35;1.70;;;22.10;52.40;;;;;;4915168;29;20060;-95
2022/03/27 19:28:38;;;;;;;3.38;1.10;;;23.20;53.10;;;;;;4934509;23;20055;-95
2022/03/27 19:31:27;;;;;;;4.25;0.98;;;22.00;52.70;;;;;;4907402;29;20054;-94
2022/03/27 19:33:56;;;;;;;3.67;0.82;;;22.00;52.40;;;;;;4881149;29;20072;-95
2022/03/27 19:36:23;;;;;;;4.35;1.02;;;23.30;53.70;;;;;;4907112;29;20044;-95
2022/03/27 19:39:09;;;;;;;4.18;0.70;;;22.90;52.90;;;;;;5290886;23;20083;-93
2022/03/27 19:41:46;;;;;;;4.95;1.05;;;22.30;52.50;;;;;;4886703;29;20044;-95
2022/03/27 19:44:12;;;;;;;3.88;0.90;;;21.50;51.90;;;;;;4905409;29;20104;-93
2022/03/27 19:46:46;;;;;;;3.42;0.77;;;23.20;53.00;;;;;;4906954;29;20052;-93
2022/03/27 19:49:12;;;;;;;2.90;0.80;;;21.80;52.30;;;;;;4888767;29;20051;-94
2022/03/27 19:51:39;;;;;;;2.83;1.00;;;21.00;52.00;;;;;;4889776;29;20052;-96
2022/03/27 19:54:07;;;;;;;2.22;0.52;;;22.00;52.70;;;;;;4888872;29;20184;-94
2022/03/27 19:57:10;;;;;;;2.83;0.80;;;23.40;53.50;;;;;;4888340;29;20060;-93
2022/03/27 20:00:35;;;;;;;4.13;0.80;;;22.00;52.30;;;;;;4904648;29;20052;-91